createdAt,value
2023-03-06T00:01:08.694Z,62.80
2023-03-06T00:03:35.806Z,62.00
2023-03-06T00:06:03.024Z,61.90
2023-03-06T00:08:30.194Z,61.90
2023-03-06T00:10:57.600Z,61.90
2023-03-06T00:13:30.129Z,61.80
2023-03-06T00:16:00.947Z,61.80
2023-03-06T00:18:28.161Z,62.00
2023-03-06T00:20:55.417Z,61.90
2023-03-06T00:23:22.352Z,62.00
2023-03-06T00:25:49.305Z,61.70
2023-03-06T00:28:17.335Z,61.80
2023-03-06T00:30:46.109Z,62.00
2023-03-06T00:33:13.241Z,62.00
2023-03-06T00:35:41.097Z,61.80
2023-03-06T00:38:09.987Z,61.80
2023-03-06T00:40:55.541Z,61.80
2023-03-06T00:43:22.644Z,61.70
2023-03-06T00:45:49.624Z,61.80
2023-03-06T00:48:33.408Z,61.90
2023-03-06T00:51:00.623Z,62.00
2023-03-06T00:53:27.601Z,61.90
2023-03-06T00:56:09.577Z,62.00
2023-03-06T00:58:37.424Z,62.00
2023-03-06T01:01:05.239Z,62.00
2023-03-06T01:03:32.308Z,61.90
2023-03-06T01:05:59.285Z,61.80
2023-03-06T01:08:26.303Z,61.70
2023-03-06T01:10:53.225Z,61.80
2023-03-06T01:13:20.369Z,61.80
2023-03-06T01:15:47.303Z,61.60
2023-03-06T01:18:32.755Z,61.70
2023-03-06T01:20:59.795Z,61.80
2023-03-06T01:23:26.897Z,61.80
2023-03-06T01:25:53.901Z,61.70
2023-03-06T01:28:23.615Z,61.70
2023-03-06T01:31:09.989Z,61.60
2023-03-06T01:33:37.688Z,61.60
2023-03-06T01:36:09.626Z,61.70
2023-03-06T01:38:37.171Z,61.80
2023-03-06T01:41:04.848Z,61.70
2023-03-06T01:43:41.712Z,61.70
2023-03-06T01:46:33.794Z,61.90
2023-03-06T01:49:13.295Z,61.90
2023-03-06T01:51:48.992Z,61.70
2023-03-06T01:54:44.309Z,61.60
2023-03-06T01:57:36.292Z,61.70
2023-03-06T02:00:25.659Z,61.60
2023-03-06T02:03:05.263Z,61.60
2023-03-06T02:05:50.598Z,61.40
2023-03-06T02:08:20.140Z,61.20
2023-03-06T02:11:08.805Z,61.30
2023-03-06T02:13:37.197Z,61.20
2023-03-06T02:16:04.323Z,61.30
2023-03-06T02:18:31.782Z,61.20
2023-03-06T02:21:03.188Z,61.30
2023-03-06T02:23:40.043Z,61.40
2023-03-06T02:26:09.580Z,61.50
2023-03-06T02:28:36.632Z,61.40
2023-03-06T02:31:28.441Z,61.20
2023-03-06T02:34:15.870Z,61.20
2023-03-06T02:36:55.733Z,61.00
2023-03-06T02:39:26.184Z,61.10
2023-03-06T02:41:53.083Z,61.30
2023-03-06T02:44:21.271Z,61.20
2023-03-06T02:46:48.253Z,61.20
2023-03-06T02:49:15.238Z,61.10
2023-03-06T02:51:42.216Z,61.10
2023-03-06T02:54:09.186Z,61.00
2023-03-06T02:56:54.276Z,60.90
2023-03-06T02:59:21.370Z,60.90
2023-03-06T03:01:48.396Z,61.00
2023-03-06T03:04:15.395Z,61.00
2023-03-06T03:07:00.901Z,61.00
2023-03-06T03:09:28.475Z,60.90
2023-03-06T03:11:55.450Z,60.70
2023-03-06T03:14:24.647Z,60.70
2023-03-06T03:16:52.172Z,60.70
2023-03-06T03:19:21.681Z,60.70
2023-03-06T03:21:48.655Z,60.90
2023-03-06T03:24:18.466Z,60.50
2023-03-06T03:26:45.960Z,60.70
2023-03-06T03:29:13.332Z,60.80
2023-03-06T03:31:41.177Z,60.90
2023-03-06T03:34:11.452Z,60.90
2023-03-06T03:36:39.149Z,60.80
2023-03-06T03:39:06.560Z,60.70
2023-03-06T03:41:34.218Z,60.70
2023-03-06T03:44:01.703Z,60.60
2023-03-06T03:46:29.534Z,60.60
2023-03-06T03:48:56.998Z,60.60
2023-03-06T03:51:24.591Z,60.50
2023-03-06T03:53:56.852Z,60.70
2023-03-06T03:56:42.362Z,60.70
2023-03-06T03:59:09.741Z,60.70
2023-03-06T04:01:56.131Z,60.80
2023-03-06T04:04:23.440Z,60.60
2023-03-06T04:06:50.407Z,60.70
2023-03-06T04:09:26.208Z,60.70
2023-03-06T04:11:53.126Z,60.70
2023-03-06T04:14:20.082Z,60.80
2023-03-06T04:16:47.127Z,60.70
2023-03-06T04:19:14.202Z,60.80
2023-03-06T04:21:41.196Z,60.90
2023-03-06T04:24:10.683Z,60.80
2023-03-06T04:26:37.653Z,60.80
2023-03-06T04:29:07.580Z,60.80
2023-03-06T04:31:34.699Z,61.00
2023-03-06T04:34:02.002Z,61.10
2023-03-06T04:36:34.585Z,61.20
2023-03-06T04:39:16.473Z,61.40
2023-03-06T04:41:43.550Z,61.50
2023-03-06T04:44:10.590Z,61.50
2023-03-06T04:46:37.587Z,61.50
2023-03-06T04:49:23.427Z,61.50
2023-03-06T04:51:50.587Z,61.60
2023-03-06T04:54:18.987Z,61.60
2023-03-06T04:56:46.139Z,61.70
2023-03-06T04:59:13.131Z,61.70
2023-03-06T05:01:40.220Z,61.70
2023-03-06T05:04:07.452Z,61.70
2023-03-06T05:06:52.913Z,61.80
2023-03-06T05:09:19.936Z,61.80
2023-03-06T05:11:46.942Z,61.80
2023-03-06T05:14:13.894Z,61.90
2023-03-06T05:16:40.932Z,61.90
2023-03-06T05:19:08.009Z,62.10
2023-03-06T05:21:34.966Z,62.20
2023-03-06T05:24:02.010Z,62.20
2023-03-06T05:26:28.958Z,62.10
2023-03-06T05:28:55.928Z,62.10
2023-03-06T05:31:23.127Z,62.10
2023-03-06T05:33:59.548Z,62.10
2023-03-06T05:36:26.651Z,62.30
2023-03-06T05:39:11.952Z,62.30
2023-03-06T05:41:39.203Z,62.10
2023-03-06T05:44:24.880Z,62.20
2023-03-06T05:46:52.006Z,62.10
2023-03-06T05:49:37.558Z,62.00
2023-03-06T05:52:06.034Z,62.00
2023-03-06T05:54:34.775Z,62.10
2023-03-06T05:57:02.176Z,62.00
2023-03-06T05:59:29.215Z,62.00
2023-03-06T06:01:56.779Z,61.80
2023-03-06T06:04:26.281Z,61.80
2023-03-06T06:06:58.625Z,61.90
2023-03-06T06:09:48.261Z,62.00
2023-03-06T06:12:15.360Z,61.80
2023-03-06T06:14:42.390Z,61.70
2023-03-06T06:17:12.695Z,61.80
2023-03-06T06:19:39.714Z,61.80
2023-03-06T06:22:06.814Z,61.80
2023-03-06T06:24:52.197Z,61.80
2023-03-06T06:27:19.233Z,61.80
2023-03-06T06:29:46.341Z,61.80
2023-03-06T06:32:13.366Z,61.70
2023-03-06T06:34:40.306Z,61.70
2023-03-06T06:37:07.258Z,61.60
2023-03-06T06:39:34.193Z,61.60
2023-03-06T06:42:21.651Z,61.60
2023-03-06T06:44:49.398Z,61.70
2023-03-06T06:47:25.330Z,61.50
2023-03-06T06:49:53.842Z,61.50
2023-03-06T06:52:20.973Z,61.70
2023-03-06T06:54:48.084Z,61.80
2023-03-06T06:57:15.648Z,61.80
2023-03-06T06:59:43.062Z,61.80
2023-03-06T07:02:13.009Z,61.80
2023-03-06T07:04:52.202Z,61.90
2023-03-06T07:07:27.709Z,61.90
2023-03-06T07:09:56.102Z,62.00
2023-03-06T07:12:23.241Z,62.10
2023-03-06T07:14:50.180Z,62.10
2023-03-06T07:17:17.317Z,62.30
2023-03-06T07:19:46.950Z,62.30
2023-03-06T07:22:23.069Z,62.40
2023-03-06T07:24:50.815Z,62.40
2023-03-06T07:27:17.761Z,62.40
2023-03-06T07:29:44.936Z,62.40
2023-03-06T07:32:12.733Z,62.50
2023-03-06T07:34:40.605Z,62.50
2023-03-06T07:37:26.203Z,62.50
2023-03-06T07:39:53.878Z,62.50
2023-03-06T07:42:29.784Z,62.50
2023-03-06T07:44:57.436Z,62.50
2023-03-06T07:47:25.309Z,62.40
2023-03-06T07:49:56.536Z,62.30
2023-03-06T07:52:24.620Z,62.40
2023-03-06T07:54:55.374Z,62.20
2023-03-06T07:57:41.358Z,62.10
2023-03-06T08:00:13.080Z,62.20
2023-03-06T08:02:41.050Z,62.30
2023-03-06T08:05:09.806Z,62.30
2023-03-06T08:07:37.084Z,62.20
2023-03-06T08:10:05.155Z,62.10
2023-03-06T08:12:32.887Z,62.30
2023-03-06T08:15:00.116Z,62.20
2023-03-06T08:17:30.458Z,62.20
2023-03-06T08:20:00.349Z,62.50
2023-03-06T08:22:27.397Z,62.80
2023-03-06T08:24:57.275Z,62.70
2023-03-06T08:27:24.406Z,62.60
2023-03-06T08:29:51.323Z,62.80
2023-03-06T08:32:18.384Z,62.80
2023-03-06T08:34:45.657Z,63.60
2023-03-06T08:37:24.738Z,62.80
2023-03-06T08:39:51.731Z,62.50
2023-03-06T08:42:37.373Z,62.50
2023-03-06T08:45:05.309Z,62.70
2023-03-06T08:47:34.350Z,62.80
2023-03-06T08:50:04.266Z,62.90
2023-03-06T08:52:37.184Z,62.80
2023-03-06T08:55:05.266Z,62.60
2023-03-06T08:57:38.243Z,62.60
2023-03-06T09:00:08.922Z,62.60
2023-03-06T09:02:36.027Z,62.90
2023-03-06T09:05:07.422Z,62.90
2023-03-06T09:07:35.325Z,62.90
2023-03-06T09:10:02.505Z,63.20
2023-03-06T09:12:32.662Z,63.20
2023-03-06T09:15:05.482Z,63.30
2023-03-06T09:17:32.505Z,63.40
2023-03-06T09:20:18.117Z,63.40
2023-03-06T09:22:45.823Z,63.90
2023-03-06T09:25:13.904Z,64.00
2023-03-06T09:27:43.624Z,63.10
2023-03-06T09:30:29.036Z,63.00
2023-03-06T09:32:56.730Z,62.80
2023-03-06T09:35:23.923Z,62.70
2023-03-06T09:37:50.931Z,62.70
2023-03-06T09:40:29.522Z,62.30
2023-03-06T09:42:56.481Z,62.20
2023-03-06T09:45:24.859Z,62.80
2023-03-06T09:48:05.198Z,62.30
2023-03-06T09:50:44.607Z,62.00
2023-03-06T09:53:21.527Z,62.20
2023-03-06T09:56:14.689Z,62.30
2023-03-06T09:58:51.664Z,62.30
2023-03-06T10:01:35.127Z,62.30
2023-03-06T10:04:39.313Z,62.40
2023-03-06T10:07:23.292Z,62.40
2023-03-06T10:09:56.200Z,62.10
2023-03-06T10:12:28.554Z,62.00
2023-03-06T10:15:18.899Z,61.70
2023-03-06T10:17:46.713Z,61.60
2023-03-06T10:21:00.952Z,61.50
2023-03-06T10:23:43.386Z,61.30
2023-03-06T10:26:16.455Z,61.20
2023-03-06T10:28:53.900Z,61.50
2023-03-06T10:31:28.086Z,61.50
2023-03-06T10:33:57.356Z,61.40
2023-03-06T10:36:27.347Z,61.40
2023-03-06T10:38:58.933Z,61.50
2023-03-06T10:41:31.119Z,61.30
2023-03-06T10:44:01.095Z,61.30
2023-03-06T10:46:34.499Z,61.20
2023-03-06T10:49:05.390Z,61.10
2023-03-06T10:51:34.493Z,60.70
2023-03-06T10:54:18.071Z,61.00
2023-03-06T10:56:46.968Z,60.70
2023-03-06T10:59:17.761Z,60.60
2023-03-06T11:01:50.446Z,60.70
2023-03-06T11:04:31.161Z,60.60
2023-03-06T11:07:13.850Z,60.10
2023-03-06T11:09:59.400Z,60.00
2023-03-06T11:12:36.745Z,59.40
2023-03-06T11:15:24.697Z,59.50
2023-03-06T11:17:59.166Z,59.40
2023-03-06T11:20:52.830Z,59.20
2023-03-06T11:23:37.168Z,59.40
2023-03-06T11:26:09.951Z,59.00
2023-03-06T11:29:00.206Z,58.90
2023-03-06T11:31:38.094Z,59.10
2023-03-06T11:34:09.009Z,58.80
2023-03-06T11:36:52.862Z,58.70
2023-03-06T11:39:29.214Z,58.80
2023-03-06T11:42:26.702Z,58.70
2023-03-06T11:45:32.813Z,57.70
2023-03-06T11:48:35.457Z,58.30
2023-03-06T11:51:14.003Z,57.60
2023-03-06T11:53:42.042Z,58.10
2023-03-06T11:56:41.066Z,58.20
2023-03-06T11:59:33.774Z,58.40
2023-03-06T12:02:15.868Z,58.20
2023-03-06T12:04:52.772Z,58.00
2023-03-06T12:07:37.193Z,58.30
2023-03-06T12:10:28.678Z,58.40
2023-03-06T12:13:14.782Z,58.50
2023-03-06T12:15:53.854Z,58.50
2023-03-06T12:18:39.533Z,58.20
2023-03-06T12:21:15.439Z,56.70
2023-03-06T12:24:03.943Z,57.20
2023-03-06T12:27:14.695Z,57.30
2023-03-06T12:30:24.989Z,57.00
2023-03-06T12:33:25.392Z,56.50
2023-03-06T12:36:05.029Z,56.60
2023-03-06T12:38:51.671Z,56.60
2023-03-06T12:41:29.004Z,56.60
2023-03-06T12:44:33.598Z,55.50
2023-03-06T12:47:12.841Z,56.00
2023-03-06T12:49:44.064Z,56.50
2023-03-06T12:52:32.095Z,56.00
2023-03-06T12:55:01.445Z,56.00
2023-03-06T12:57:48.896Z,56.30
2023-03-06T13:00:34.365Z,56.20
2023-03-06T13:03:53.706Z,55.90
2023-03-06T13:06:54.365Z,56.20
2023-03-06T13:09:39.195Z,55.50
2023-03-06T13:12:11.925Z,56.10
2023-03-06T13:14:42.342Z,56.10
2023-03-06T13:17:34.519Z,56.30
2023-03-06T13:20:43.980Z,56.30
2023-03-06T13:23:29.863Z,56.80
2023-03-06T13:26:25.329Z,56.50
2023-03-06T13:28:57.842Z,56.60
2023-03-06T13:31:34.041Z,56.60
2023-03-06T13:34:06.314Z,56.50
2023-03-06T13:36:36.693Z,55.80
2023-03-06T13:39:10.200Z,55.80
2023-03-06T13:41:44.593Z,55.10
2023-03-06T13:44:23.620Z,55.20
2023-03-06T13:47:19.240Z,55.20
2023-03-06T13:49:48.462Z,55.00
2023-03-06T13:52:27.838Z,55.50
2023-03-06T13:56:04.967Z,55.40
2023-03-06T13:59:16.069Z,55.80
2023-03-06T14:01:54.727Z,55.90
2023-03-06T14:04:53.466Z,55.80
2023-03-06T14:07:30.329Z,56.30
2023-03-06T14:10:22.195Z,56.30
2023-03-06T14:12:49.168Z,56.10
2023-03-06T14:15:23.768Z,56.10
2023-03-06T14:18:02.709Z,56.20
2023-03-06T14:21:01.094Z,56.00
2023-03-06T14:23:42.510Z,54.30
2023-03-06T14:26:33.993Z,54.10
2023-03-06T14:29:03.050Z,53.00
2023-03-06T14:31:42.932Z,52.90
2023-03-06T14:34:31.181Z,53.20
2023-03-06T14:37:03.220Z,52.80
2023-03-06T14:39:33.667Z,53.10
2023-03-06T14:42:21.792Z,52.90
2023-03-06T14:45:00.093Z,53.00
2023-03-06T14:47:36.392Z,52.60
2023-03-06T14:50:18.542Z,51.40
2023-03-06T14:52:54.463Z,51.10
2023-03-06T14:55:26.988Z,51.90
2023-03-06T14:58:17.660Z,51.80
2023-03-06T15:00:49.610Z,52.20
2023-03-06T15:03:46.982Z,51.90
2023-03-06T15:06:27.594Z,51.70
2023-03-06T15:09:34.284Z,51.70
2023-03-06T15:12:04.412Z,51.60
2023-03-06T15:14:47.888Z,52.10
2023-03-06T15:17:15.582Z,52.30
2023-03-06T15:19:43.331Z,51.90
2023-03-06T15:22:43.133Z,51.80
2023-03-06T15:25:21.578Z,51.00
2023-03-06T15:28:22.717Z,51.30
2023-03-06T15:31:16.620Z,51.40
2023-03-06T15:33:43.773Z,51.50
2023-03-06T15:36:31.770Z,51.60
2023-03-06T15:39:00.864Z,51.70
2023-03-06T15:41:36.591Z,51.80
2023-03-06T15:44:11.548Z,52.00
2023-03-06T15:47:06.639Z,52.20
2023-03-06T15:49:38.200Z,51.80
2023-03-06T15:52:08.846Z,52.20
2023-03-06T15:54:36.157Z,52.30
2023-03-06T15:57:05.451Z,52.10
2023-03-06T15:59:42.730Z,52.20
2023-03-06T16:02:23.667Z,52.60
2023-03-06T16:04:51.957Z,52.60
2023-03-06T16:07:18.944Z,52.50
2023-03-06T16:09:46.067Z,51.50
2023-03-06T16:12:18.280Z,51.50
2023-03-06T16:14:47.539Z,51.40
2023-03-06T16:17:15.397Z,51.10
2023-03-06T16:19:45.351Z,50.80
2023-03-06T16:22:21.350Z,50.70
2023-03-06T16:24:51.945Z,50.90
2023-03-06T16:27:37.731Z,51.10
2023-03-06T16:30:05.672Z,51.30
2023-03-06T16:32:32.938Z,51.00
2023-03-06T16:34:59.978Z,50.60
2023-03-06T16:37:26.972Z,50.10
2023-03-06T16:39:53.982Z,50.40
2023-03-06T16:42:23.207Z,50.00
2023-03-06T16:44:50.251Z,49.80
2023-03-06T16:47:17.378Z,49.90
2023-03-06T16:49:47.060Z,50.00
2023-03-06T16:52:14.738Z,50.10
2023-03-06T16:54:44.248Z,49.70
2023-03-06T16:57:14.593Z,50.10
2023-03-06T16:59:41.742Z,50.50
2023-03-06T17:02:11.088Z,50.20
2023-03-06T17:04:38.506Z,49.90
2023-03-06T17:07:05.741Z,50.40
2023-03-06T17:09:33.002Z,50.70
2023-03-06T17:12:00.146Z,50.40
2023-03-06T17:14:30.088Z,50.50
2023-03-06T17:16:58.837Z,50.60
2023-03-06T17:19:25.977Z,50.40
2023-03-06T17:21:58.782Z,50.30
2023-03-06T17:24:25.972Z,50.40
2023-03-06T17:27:08.357Z,50.30
2023-03-06T17:29:37.906Z,50.30
2023-03-06T17:32:05.075Z,51.20
2023-03-06T17:34:35.036Z,50.20
2023-03-06T17:37:20.841Z,50.40
2023-03-06T17:39:48.162Z,50.70
2023-03-06T17:42:15.748Z,50.80
2023-03-06T17:44:42.883Z,50.90
2023-03-06T17:47:09.906Z,50.90
2023-03-06T17:49:37.066Z,51.00
2023-03-06T17:52:05.843Z,51.10
2023-03-06T17:54:33.422Z,51.50
2023-03-06T17:57:03.497Z,51.70
2023-03-06T17:59:34.062Z,51.90
2023-03-06T18:02:01.415Z,52.60
2023-03-06T18:04:28.548Z,52.90
2023-03-06T18:06:57.139Z,53.30
2023-03-06T18:09:24.741Z,53.40
2023-03-06T18:11:51.995Z,54.10
2023-03-06T18:14:19.266Z,54.70
2023-03-06T18:16:46.528Z,55.30
2023-03-06T18:19:13.710Z,56.20
2023-03-06T18:21:43.488Z,56.80
2023-03-06T18:24:12.366Z,57.70
2023-03-06T18:26:44.428Z,58.10
2023-03-06T18:29:11.512Z,58.50
2023-03-06T18:31:40.932Z,59.00
2023-03-06T18:34:13.552Z,59.30
2023-03-06T18:36:59.178Z,59.80
2023-03-06T18:39:26.294Z,59.90
2023-03-06T18:42:11.632Z,60.00
2023-03-06T18:44:39.235Z,60.60
2023-03-06T18:47:06.394Z,60.80
2023-03-06T18:49:33.397Z,61.00
2023-03-06T18:52:00.451Z,61.60
2023-03-06T18:54:45.670Z,61.70
2023-03-06T18:57:12.778Z,62.40
2023-03-06T18:59:39.881Z,62.10
2023-03-06T19:02:07.308Z,62.60
2023-03-06T19:04:36.503Z,62.50
2023-03-06T19:07:03.830Z,62.70
2023-03-06T19:09:33.582Z,63.10
2023-03-06T19:12:03.606Z,62.90
2023-03-06T19:14:30.847Z,63.10
2023-03-06T19:17:01.107Z,63.10
2023-03-06T19:19:29.378Z,63.60
2023-03-06T19:22:00.120Z,63.40
2023-03-06T19:24:27.219Z,63.70
2023-03-06T19:27:13.480Z,63.60
2023-03-06T19:29:40.581Z,63.70
2023-03-06T19:32:07.808Z,64.00
2023-03-06T19:34:34.842Z,64.30
2023-03-06T19:37:20.327Z,64.10
2023-03-06T19:39:47.413Z,64.30
2023-03-06T19:42:14.500Z,64.60
2023-03-06T19:44:41.624Z,64.50
2023-03-06T19:47:08.732Z,64.40
2023-03-06T19:49:38.852Z,64.40
2023-03-06T19:52:09.342Z,64.80
2023-03-06T19:54:36.481Z,64.80
2023-03-06T19:57:06.186Z,64.80
2023-03-06T19:59:52.070Z,64.80
2023-03-06T20:02:26.624Z,65.00
2023-03-06T20:05:12.250Z,65.20
2023-03-06T20:07:39.269Z,65.00
2023-03-06T20:10:06.492Z,65.00
2023-03-06T20:12:36.435Z,65.00
2023-03-06T20:15:03.726Z,65.20
2023-03-06T20:17:32.972Z,65.40
2023-03-06T20:20:00.330Z,65.30
2023-03-06T20:22:27.412Z,65.40
2023-03-06T20:24:54.696Z,65.50
2023-03-06T20:27:21.743Z,65.50
2023-03-06T20:29:48.784Z,65.50
2023-03-06T20:32:15.873Z,65.50
2023-03-06T20:34:43.063Z,65.40
2023-03-06T20:37:11.003Z,65.50
2023-03-06T20:39:38.045Z,65.90
2023-03-06T20:42:06.028Z,66.10
2023-03-06T20:44:41.708Z,66.60
2023-03-06T20:47:11.219Z,66.50
2023-03-06T20:49:46.971Z,66.60
2023-03-06T20:52:14.029Z,66.90
2023-03-06T20:54:59.375Z,67.30
2023-03-06T20:57:26.487Z,67.20
2023-03-06T20:59:53.454Z,67.70
2023-03-06T21:02:23.132Z,67.40
2023-03-06T21:04:50.193Z,67.60
2023-03-06T21:07:17.234Z,67.60
2023-03-06T21:09:44.591Z,67.60
2023-03-06T21:12:11.574Z,68.00
2023-03-06T21:14:38.606Z,67.80
2023-03-06T21:17:05.590Z,68.30
2023-03-06T21:19:32.671Z,67.50
2023-03-06T21:21:59.957Z,67.80
2023-03-06T21:24:27.022Z,67.80
2023-03-06T21:26:54.115Z,67.90
2023-03-06T21:29:21.053Z,67.80
2023-03-06T21:31:47.971Z,67.90
2023-03-06T21:34:17.539Z,67.90
2023-03-06T21:36:47.262Z,68.00
2023-03-06T21:39:16.823Z,68.00
2023-03-06T21:41:46.417Z,68.40
2023-03-06T21:44:13.492Z,68.30
2023-03-06T21:46:46.475Z,68.40
2023-03-06T21:49:13.539Z,68.50
2023-03-06T21:51:49.111Z,68.90
2023-03-06T21:54:16.284Z,69.20
2023-03-06T21:56:48.908Z,69.60
2023-03-06T21:59:15.890Z,69.80
2023-03-06T22:02:01.583Z,69.50
2023-03-06T22:04:28.600Z,69.50
2023-03-06T22:07:14.290Z,69.60
2023-03-06T22:09:41.303Z,69.40
2023-03-06T22:12:08.390Z,69.50
2023-03-06T22:14:35.412Z,69.70
2023-03-06T22:17:05.050Z,69.80
2023-03-06T22:19:51.444Z,70.00
2023-03-06T22:22:18.523Z,69.90
2023-03-06T22:24:48.403Z,70.20
2023-03-06T22:27:15.847Z,70.40
2023-03-06T22:29:43.060Z,70.40
2023-03-06T22:32:10.233Z,70.40
2023-03-06T22:34:37.393Z,70.40
2023-03-06T22:37:04.568Z,70.70
2023-03-06T22:39:31.608Z,70.90
2023-03-06T22:41:58.809Z,70.70
2023-03-06T22:44:25.964Z,70.50
2023-03-06T22:46:53.519Z,70.60
2023-03-06T22:49:20.758Z,70.20
2023-03-06T22:51:47.860Z,70.30
2023-03-06T22:54:14.826Z,70.50
2023-03-06T22:56:42.183Z,70.40
2023-03-06T22:59:09.243Z,70.50
2023-03-06T23:01:36.456Z,70.50
2023-03-06T23:04:11.181Z,70.50
2023-03-06T23:06:41.189Z,70.40
2023-03-06T23:09:22.664Z,70.30
2023-03-06T23:11:50.511Z,70.30
2023-03-06T23:14:19.096Z,70.10
2023-03-06T23:16:46.513Z,70.20
2023-03-06T23:19:13.593Z,70.00
2023-03-06T23:21:41.310Z,70.10
2023-03-06T23:24:08.419Z,70.40
2023-03-06T23:26:35.792Z,70.50
2023-03-06T23:29:07.370Z,70.90
2023-03-06T23:31:34.449Z,71.60
2023-03-06T23:34:03.220Z,70.80
2023-03-06T23:36:30.856Z,70.60
2023-03-06T23:38:58.549Z,70.60
2023-03-06T23:41:25.704Z,70.60
2023-03-06T23:43:55.024Z,70.40
2023-03-06T23:46:22.676Z,70.40
2023-03-06T23:48:49.804Z,70.40
2023-03-06T23:51:19.997Z,70.10
2023-03-06T23:53:48.212Z,70.30
2023-03-06T23:56:15.601Z,70.50
2023-03-06T23:58:42.733Z,70.40
